sensor_id;sensor_type;location;lat;lon;timestamp;pressure;altitude;pressure_sealevel;temperature;humidity
6349;BME280;3207;42.648;23.406;2022-08-19T00:02:17;99221.31;;;26.78;53.29
6349;BME280;3207;42.648;23.406;2022-08-19T00:04:43;99227.06;;;26.58;53.50
6349;BME280;3207;42.648;23.406;2022-08-19T00:07:14;99222.38;;;26.54;54.11
6349;BME280;3207;42.648;23.406;2022-08-19T00:09:41;99240.56;;;26.52;54.02
6349;BME280;3207;42.648;23.406;2022-08-19T00:12:07;99231.25;;;26.43;54.36
6349;BME280;3207;42.648;23.406;2022-08-19T00:14:34;99232.28;;;26.42;54.08
6349;BME280;3207;42.648;23.406;2022-08-19T00:17:00;99229.75;;;26.35;54.55
6349;BME280;3207;42.648;23.406;2022-08-19T00:19:28;99233.81;;;26.38;53.81
6349;BME280;3207;42.648;23.406;2022-08-19T00:21:55;99216.09;;;26.37;54.00
6349;BME280;3207;42.648;23.406;2022-08-19T00:24:23;99217.94;;;26.24;54.33
6349;BME280;3207;42.648;23.406;2022-08-19T00:26:50;99221.53;;;26.18;54.35
6349;BME280;3207;42.648;23.406;2022-08-19T00:29:22;99220.47;;;26.19;54.46
6349;BME280;3207;42.648;23.406;2022-08-19T00:31:50;99219.66;;;26.19;54.53
6349;BME280;3207;42.648;23.406;2022-08-19T00:34:19;99189.47;;;25.88;54.90
6349;BME280;3207;42.648;23.406;2022-08-19T00:36:45;99249.50;;;26.22;54.66
6349;BME280;3207;42.648;23.406;2022-08-19T00:39:13;99260.09;;;26.17;54.55
6349;BME280;3207;42.648;23.406;2022-08-19T00:41:42;99257.06;;;26.14;54.54
6349;BME280;3207;42.648;23.406;2022-08-19T00:44:12;99252.78;;;26.24;54.53
6349;BME280;3207;42.648;23.406;2022-08-19T00:46:41;99258.72;;;26.27;54.44
6349;BME280;3207;42.648;23.406;2022-08-19T00:49:11;99260.34;;;26.16;54.76
6349;BME280;3207;42.648;23.406;2022-08-19T00:51:40;99253.81;;;26.23;54.03
6349;BME280;3207;42.648;23.406;2022-08-19T00:54:07;99247.28;;;26.19;53.85
6349;BME280;3207;42.648;23.406;2022-08-19T00:56:35;99266.16;;;26.13;54.10
6349;BME280;3207;42.648;23.406;2022-08-19T00:59:04;99265.94;;;26.26;53.56
6349;BME280;3207;42.648;23.406;2022-08-19T01:01:34;99270.75;;;26.36;53.77
6349;BME280;3207;42.648;23.406;2022-08-19T01:04:01;99276.13;;;26.36;53.60
6349;BME280;3207;42.648;23.406;2022-08-19T01:06:28;99288.59;;;26.42;53.31
6349;BME280;3207;42.648;23.406;2022-08-19T01:08:58;99286.50;;;26.44;53.41
6349;BME280;3207;42.648;23.406;2022-08-19T01:11:24;99274.13;;;26.43;53.73
6349;BME280;3207;42.648;23.406;2022-08-19T01:13:52;99282.06;;;26.38;53.78
6349;BME280;3207;42.648;23.406;2022-08-19T01:16:23;99281.72;;;26.34;53.64
6349;BME280;3207;42.648;23.406;2022-08-19T01:18:51;99236.69;;;26.13;54.38
6349;BME280;3207;42.648;23.406;2022-08-19T01:21:22;99262.66;;;26.24;54.65
6349;BME280;3207;42.648;23.406;2022-08-19T01:23:51;99266.75;;;26.27;54.13
6349;BME280;3207;42.648;23.406;2022-08-19T01:26:19;99257.66;;;26.16;54.39
6349;BME280;3207;42.648;23.406;2022-08-19T01:28:48;99257.75;;;26.21;54.50
6349;BME280;3207;42.648;23.406;2022-08-19T01:31:20;99242.97;;;26.18;54.41
6349;BME280;3207;42.648;23.406;2022-08-19T01:33:47;99240.06;;;26.20;54.54
6349;BME280;3207;42.648;23.406;2022-08-19T01:36:22;99245.09;;;26.28;54.34
6349;BME280;3207;42.648;23.406;2022-08-19T01:38:52;99246.16;;;26.27;54.65
6349;BME280;3207;42.648;23.406;2022-08-19T01:41:19;99257.00;;;26.32;54.05
6349;BME280;3207;42.648;23.406;2022-08-19T01:43:48;99259.56;;;26.39;53.88
6349;BME280;3207;42.648;23.406;2022-08-19T01:46:15;99256.78;;;26.34;53.98
6349;BME280;3207;42.648;23.406;2022-08-19T01:48:43;99255.59;;;26.30;54.39
6349;BME280;3207;42.648;23.406;2022-08-19T01:51:11;99255.72;;;26.35;54.62
6349;BME280;3207;42.648;23.406;2022-08-19T01:53:38;99248.00;;;26.27;54.73
6349;BME280;3207;42.648;23.406;2022-08-19T01:56:07;99248.00;;;26.27;54.83
6349;BME280;3207;42.648;23.406;2022-08-19T01:58:38;99223.16;;;26.19;54.78
6349;BME280;3207;42.648;23.406;2022-08-19T02:01:08;99226.34;;;26.28;54.89
6349;BME280;3207;42.648;23.406;2022-08-19T02:03:34;99229.56;;;26.18;55.63
6349;BME280;3207;42.648;23.406;2022-08-19T02:06:02;99228.03;;;26.11;55.96
6349;BME280;3207;42.648;23.406;2022-08-19T02:08:31;99229.66;;;26.00;56.68
6349;BME280;3207;42.648;23.406;2022-08-19T02:10:58;99234.09;;;26.06;56.60
6349;BME280;3207;42.648;23.406;2022-08-19T02:13:26;99218.50;;;26.03;56.52
6349;BME280;3207;42.648;23.406;2022-08-19T02:15:53;99219.66;;;25.96;57.06
6349;BME280;3207;42.648;23.406;2022-08-19T02:18:19;99223.84;;;26.03;57.52
6349;BME280;3207;42.648;23.406;2022-08-19T02:20:46;99226.03;;;26.06;57.20
6349;BME280;3207;42.648;23.406;2022-08-19T02:23:15;99222.66;;;25.99;57.53
6349;BME280;3207;42.648;23.406;2022-08-19T02:25:42;99221.25;;;25.97;57.10
6349;BME280;3207;42.648;23.406;2022-08-19T02:28:09;99230.81;;;25.93;57.38
6349;BME280;3207;42.648;23.406;2022-08-19T02:30:38;99227.56;;;25.91;56.84
6349;BME280;3207;42.648;23.406;2022-08-19T02:33:06;99234.44;;;25.98;57.14
6349;BME280;3207;42.648;23.406;2022-08-19T02:35:33;99247.47;;;26.06;56.75
6349;BME280;3207;42.648;23.406;2022-08-19T02:37:59;99259.97;;;26.12;56.84
6349;BME280;3207;42.648;23.406;2022-08-19T02:40:48;99273.16;;;26.14;56.14
6349;BME280;3207;42.648;23.406;2022-08-19T02:43:17;99256.72;;;26.22;56.21
6349;BME280;3207;42.648;23.406;2022-08-19T02:45:47;99271.44;;;26.31;56.73
6349;BME280;3207;42.648;23.406;2022-08-19T02:48:14;99268.25;;;26.22;57.24
6349;BME280;3207;42.648;23.406;2022-08-19T02:50:42;99264.28;;;26.13;57.50
6349;BME280;3207;42.648;23.406;2022-08-19T02:53:09;99261.94;;;26.05;57.60
6349;BME280;3207;42.648;23.406;2022-08-19T02:55:35;99259.13;;;26.00;58.20
6349;BME280;3207;42.648;23.406;2022-08-19T02:58:02;99247.59;;;26.00;58.51
6349;BME280;3207;42.648;23.406;2022-08-19T03:00:29;99246.06;;;25.92;59.49
6349;BME280;3207;42.648;23.406;2022-08-19T03:02:56;99233.59;;;25.86;60.08
6349;BME280;3207;42.648;23.406;2022-08-19T03:05:24;99231.34;;;25.71;60.18
6349;BME280;3207;42.648;23.406;2022-08-19T03:07:51;99226.56;;;25.62;60.84
6349;BME280;3207;42.648;23.406;2022-08-19T03:10:18;99252.81;;;25.83;60.71
6349;BME280;3207;42.648;23.406;2022-08-19T03:12:45;99254.53;;;25.77;61.32
6349;BME280;3207;42.648;23.406;2022-08-19T03:15:12;99271.81;;;25.93;61.11
6349;BME280;3207;42.648;23.406;2022-08-19T03:17:38;99282.19;;;26.01;60.48
6349;BME280;3207;42.648;23.406;2022-08-19T03:20:07;99289.00;;;26.15;60.66
6349;BME280;3207;42.648;23.406;2022-08-19T03:22:34;99289.09;;;26.20;60.51
6349;BME280;3207;42.648;23.406;2022-08-19T03:25:01;99279.78;;;26.23;60.51
6349;BME280;3207;42.648;23.406;2022-08-19T03:27:28;99275.09;;;26.07;60.96
6349;BME280;3207;42.648;23.406;2022-08-19T03:29:55;99302.94;;;26.17;60.99
6349;BME280;3207;42.648;23.406;2022-08-19T03:32:21;99309.63;;;26.15;60.82
6349;BME280;3207;42.648;23.406;2022-08-19T03:34:48;99315.22;;;26.25;61.01
6349;BME280;3207;42.648;23.406;2022-08-19T03:37:17;99311.13;;;26.22;61.22
6349;BME280;3207;42.648;23.406;2022-08-19T03:39:44;99313.06;;;26.04;61.94
6349;BME280;3207;42.648;23.406;2022-08-19T03:42:11;99322.16;;;26.03;61.60
6349;BME280;3207;42.648;23.406;2022-08-19T03:44:38;99315.75;;;26.04;61.33
6349;BME280;3207;42.648;23.406;2022-08-19T03:47:05;99322.41;;;26.13;60.95
6349;BME280;3207;42.648;23.406;2022-08-19T03:49:32;99329.19;;;26.15;60.81
6349;BME280;3207;42.648;23.406;2022-08-19T03:52:00;99332.69;;;26.16;60.88
6349;BME280;3207;42.648;23.406;2022-08-19T03:54:28;99353.97;;;26.11;61.63
6349;BME280;3207;42.648;23.406;2022-08-19T03:56:56;99363.53;;;26.18;61.37
6349;BME280;3207;42.648;23.406;2022-08-19T03:59:24;99384.09;;;26.24;61.54
6349;BME280;3207;42.648;23.406;2022-08-19T04:01:52;99385.34;;;26.22;62.50
6349;BME280;3207;42.648;23.406;2022-08-19T04:04:18;99382.41;;;26.12;62.57
6349;BME280;3207;42.648;23.406;2022-08-19T04:06:45;99384.28;;;26.11;62.96
6349;BME280;3207;42.648;23.406;2022-08-19T04:09:12;99381.44;;;26.06;63.27
6349;BME280;3207;42.648;23.406;2022-08-19T04:11:42;99375.75;;;26.03;63.52
6349;BME280;3207;42.648;23.406;2022-08-19T04:14:10;99365.63;;;26.05;63.49
6349;BME280;3207;42.648;23.406;2022-08-19T04:16:37;99352.41;;;25.92;64.32
6349;BME280;3207;42.648;23.406;2022-08-19T04:19:04;99368.09;;;25.88;65.50
6349;BME280;3207;42.648;23.406;2022-08-19T04:21:32;99378.00;;;25.87;65.81
6349;BME280;3207;42.648;23.406;2022-08-19T04:23:59;99389.47;;;25.76;65.33
6349;BME280;3207;42.648;23.406;2022-08-19T04:26:28;99396.63;;;25.82;65.31
6349;BME280;3207;42.648;23.406;2022-08-19T04:28:59;99399.19;;;25.89;64.55
6349;BME280;3207;42.648;23.406;2022-08-19T04:31:29;99404.09;;;25.92;64.70
6349;BME280;3207;42.648;23.406;2022-08-19T04:33:57;99387.00;;;25.75;64.80
6349;BME280;3207;42.648;23.406;2022-08-19T04:36:26;99412.00;;;25.87;64.99
6349;BME280;3207;42.648;23.406;2022-08-19T04:38:55;99413.78;;;25.93;64.97
6349;BME280;3207;42.648;23.406;2022-08-19T04:41:22;99426.41;;;26.04;64.69
6349;BME280;3207;42.648;23.406;2022-08-19T04:44:04;99441.91;;;26.02;64.75
6349;BME280;3207;42.648;23.406;2022-08-19T04:46:34;99473.44;;;26.37;64.03
6349;BME280;3207;42.648;23.406;2022-08-19T04:49:02;99470.88;;;26.42;63.22
6349;BME280;3207;42.648;23.406;2022-08-19T04:51:31;99473.75;;;26.58;62.96
6349;BME280;3207;42.648;23.406;2022-08-19T04:53:58;99457.50;;;26.23;64.70
6349;BME280;3207;42.648;23.406;2022-08-19T04:56:25;99430.75;;;26.05;65.56
6349;BME280;3207;42.648;23.406;2022-08-19T04:58:54;99411.31;;;25.92;67.43
6349;BME280;3207;42.648;23.406;2022-08-19T05:01:25;99409.97;;;26.01;67.40
6349;BME280;3207;42.648;23.406;2022-08-19T05:03:54;99414.38;;;25.77;68.21
6349;BME280;3207;42.648;23.406;2022-08-19T05:06:22;99400.41;;;25.75;68.20
6349;BME280;3207;42.648;23.406;2022-08-19T05:08:50;99405.94;;;25.62;68.22
6349;BME280;3207;42.648;23.406;2022-08-19T05:11:20;99412.44;;;25.66;67.16
6349;BME280;3207;42.648;23.406;2022-08-19T05:13:47;99410.53;;;25.73;66.61
6349;BME280;3207;42.648;23.406;2022-08-19T05:16:16;99411.69;;;25.77;66.05
6349;BME280;3207;42.648;23.406;2022-08-19T05:18:44;99417.47;;;25.56;66.86
6349;BME280;3207;42.648;23.406;2022-08-19T05:21:29;99417.00;;;25.65;65.79
6349;BME280;3207;42.648;23.406;2022-08-19T05:24:15;99400.66;;;25.73;65.24
6349;BME280;3207;42.648;23.406;2022-08-19T05:26:44;99383.59;;;25.68;66.12
6349;BME280;3207;42.648;23.406;2022-08-19T05:29:12;99363.09;;;25.62;67.13
6349;BME280;3207;42.648;23.406;2022-08-19T05:31:39;99359.94;;;25.65;67.47
6349;BME280;3207;42.648;23.406;2022-08-19T05:34:07;99357.03;;;25.66;67.20
6349;BME280;3207;42.648;23.406;2022-08-19T05:36:37;99343.13;;;25.76;66.48
6349;BME280;3207;42.648;23.406;2022-08-19T05:39:05;99339.06;;;25.73;66.24
6349;BME280;3207;42.648;23.406;2022-08-19T05:41:32;99356.72;;;25.93;64.90
6349;BME280;3207;42.648;23.406;2022-08-19T05:44:02;99352.44;;;26.03;64.10
6349;BME280;3207;42.648;23.406;2022-08-19T05:46:31;99371.72;;;26.23;63.55
6349;BME280;3207;42.648;23.406;2022-08-19T05:48:58;99386.78;;;26.24;63.18
6349;BME280;3207;42.648;23.406;2022-08-19T05:51:25;99399.09;;;26.44;62.02
6349;BME280;3207;42.648;23.406;2022-08-19T05:53:52;99411.00;;;26.48;61.77
6349;BME280;3207;42.648;23.406;2022-08-19T05:56:19;99406.78;;;26.52;61.49
6349;BME280;3207;42.648;23.406;2022-08-19T05:58:45;99403.41;;;26.45;61.71
6349;BME280;3207;42.648;23.406;2022-08-19T06:01:14;99405.50;;;26.43;61.27
6349;BME280;3207;42.648;23.406;2022-08-19T06:03:41;99394.78;;;26.43;61.65
6349;BME280;3207;42.648;23.406;2022-08-19T06:06:09;99373.66;;;26.35;61.17
6349;BME280;3207;42.648;23.406;2022-08-19T06:08:38;99386.88;;;26.59;60.44
6349;BME280;3207;42.648;23.406;2022-08-19T06:11:16;99365.91;;;26.68;60.06
6349;BME280;3207;42.648;23.406;2022-08-19T06:13:43;99360.66;;;26.73;59.98
6349;BME280;3207;42.648;23.406;2022-08-19T06:16:12;99366.47;;;26.82;59.89
6349;BME280;3207;42.648;23.406;2022-08-19T06:18:46;99373.94;;;26.91;59.78
6349;BME280;3207;42.648;23.406;2022-08-19T06:21:13;99401.53;;;26.99;59.02
6349;BME280;3207;42.648;23.406;2022-08-19T06:23:41;99431.38;;;27.02;58.84
6349;BME280;3207;42.648;23.406;2022-08-19T06:26:11;99432.78;;;27.05;58.89
6349;BME280;3207;42.648;23.406;2022-08-19T06:28:38;99428.47;;;27.04;58.46
6349;BME280;3207;42.648;23.406;2022-08-19T06:31:08;99422.50;;;27.02;57.88
6349;BME280;3207;42.648;23.406;2022-08-19T06:33:35;99424.97;;;27.03;58.19
6349;BME280;3207;42.648;23.406;2022-08-19T06:36:02;99440.84;;;27.05;57.98
6349;BME280;3207;42.648;23.406;2022-08-19T06:38:29;99450.41;;;27.12;57.41
6349;BME280;3207;42.648;23.406;2022-08-19T06:41:01;99449.72;;;27.17;57.05
6349;BME280;3207;42.648;23.406;2022-08-19T06:43:28;99442.63;;;27.22;56.94
6349;BME280;3207;42.648;23.406;2022-08-19T06:45:54;99429.53;;;27.26;56.17
6349;BME280;3207;42.648;23.406;2022-08-19T06:48:21;99459.28;;;27.36;56.37
6349;BME280;3207;42.648;23.406;2022-08-19T06:50:47;99471.66;;;27.49;56.08
6349;BME280;3207;42.648;23.406;2022-08-19T06:53:16;99492.00;;;27.56;55.96
6349;BME280;3207;42.648;23.406;2022-08-19T06:55:43;99506.25;;;27.68;55.34
6349;BME280;3207;42.648;23.406;2022-08-19T06:58:11;99488.63;;;27.73;54.94
6349;BME280;3207;42.648;23.406;2022-08-19T07:00:37;99478.56;;;27.68;54.69
6349;BME280;3207;42.648;23.406;2022-08-19T07:03:04;99480.56;;;27.61;54.69
6349;BME280;3207;42.648;23.406;2022-08-19T07:05:31;99471.56;;;27.55;55.00
6349;BME280;3207;42.648;23.406;2022-08-19T07:07:57;99462.31;;;27.51;55.30
6349;BME280;3207;42.648;23.406;2022-08-19T07:10:24;99445.28;;;27.46;55.07
6349;BME280;3207;42.648;23.406;2022-08-19T07:12:50;99451.22;;;27.36;55.27
6349;BME280;3207;42.648;23.406;2022-08-19T07:15:18;99434.06;;;27.37;56.16
6349;BME280;3207;42.648;23.406;2022-08-19T07:17:46;99441.66;;;27.40;57.20
6349;BME280;3207;42.648;23.406;2022-08-19T07:20:13;99439.00;;;27.40;57.65
6349;BME280;3207;42.648;23.406;2022-08-19T07:22:40;99433.25;;;27.48;58.52
6349;BME280;3207;42.648;23.406;2022-08-19T07:25:08;99440.38;;;27.54;58.43
6349;BME280;3207;42.648;23.406;2022-08-19T07:27:35;99434.44;;;27.64;58.47
6349;BME280;3207;42.648;23.406;2022-08-19T07:30:02;99442.25;;;27.65;58.21
6349;BME280;3207;42.648;23.406;2022-08-19T07:32:31;99430.66;;;27.77;57.73
6349;BME280;3207;42.648;23.406;2022-08-19T07:34:58;99380.19;;;27.79;56.55
6349;BME280;3207;42.648;23.406;2022-08-19T07:37:25;99399.81;;;28.08;55.39
6349;BME280;3207;42.648;23.406;2022-08-19T07:39:54;99397.81;;;28.26;54.11
6349;BME280;3207;42.648;23.406;2022-08-19T07:42:20;99403.53;;;28.47;53.86
6349;BME280;3207;42.648;23.406;2022-08-19T07:44:47;99408.84;;;28.75;53.85
6349;BME280;3207;42.648;23.406;2022-08-19T07:47:13;99413.81;;;29.17;52.74
6349;BME280;3207;42.648;23.406;2022-08-19T07:49:42;99404.03;;;29.44;51.05
6349;BME280;3207;42.648;23.406;2022-08-19T07:52:10;99422.88;;;29.44;51.17
6349;BME280;3207;42.648;23.406;2022-08-19T07:54:38;99440.91;;;29.27;52.36
6349;BME280;3207;42.648;23.406;2022-08-19T07:57:06;99448.03;;;28.99;53.67
6349;BME280;3207;42.648;23.406;2022-08-19T07:59:33;99448.69;;;28.61;54.35
6349;BME280;3207;42.648;23.406;2022-08-19T08:02:00;99453.22;;;28.27;55.48
6349;BME280;3207;42.648;23.406;2022-08-19T08:04:27;99457.66;;;28.10;56.09
6349;BME280;3207;42.648;23.406;2022-08-19T08:07:13;99488.69;;;27.89;56.95
6349;BME280;3207;42.648;23.406;2022-08-19T08:09:57;99486.38;;;27.81;57.45
6349;BME280;3207;42.648;23.406;2022-08-19T08:12:26;99489.88;;;27.82;57.63
6349;BME280;3207;42.648;23.406;2022-08-19T08:14:56;99491.06;;;27.86;57.74
6349;BME280;3207;42.648;23.406;2022-08-19T08:17:26;99494.88;;;27.90;57.88
6349;BME280;3207;42.648;23.406;2022-08-19T08:19:53;99507.72;;;27.99;57.82
6349;BME280;3207;42.648;23.406;2022-08-19T08:22:23;99516.94;;;28.03;57.04
6349;BME280;3207;42.648;23.406;2022-08-19T08:25:10;99510.63;;;28.21;54.69
6349;BME280;3207;42.648;23.406;2022-08-19T08:27:38;99510.56;;;28.33;53.83
6349;BME280;3207;42.648;23.406;2022-08-19T08:30:06;99508.50;;;28.52;53.33
6349;BME280;3207;42.648;23.406;2022-08-19T08:32:35;99488.41;;;28.54;52.64
6349;BME280;3207;42.648;23.406;2022-08-19T08:35:02;99519.97;;;28.59;52.56
6349;BME280;3207;42.648;23.406;2022-08-19T08:37:30;99540.28;;;28.66;52.51
6349;BME280;3207;42.648;23.406;2022-08-19T08:39:57;99527.00;;;28.76;52.20
6349;BME280;3207;42.648;23.406;2022-08-19T08:42:28;99493.63;;;28.89;51.71
6349;BME280;3207;42.648;23.406;2022-08-19T08:44:59;99510.34;;;29.08;51.27
6349;BME280;3207;42.648;23.406;2022-08-19T08:47:30;99515.72;;;29.25;50.95
6349;BME280;3207;42.648;23.406;2022-08-19T08:50:01;99519.81;;;29.27;50.53
6349;BME280;3207;42.648;23.406;2022-08-19T08:52:34;99529.69;;;29.22;50.31
6349;BME280;3207;42.648;23.406;2022-08-19T08:55:06;99530.66;;;29.16;50.82
6349;BME280;3207;42.648;23.406;2022-08-19T08:57:36;99540.13;;;29.18;51.11
6349;BME280;3207;42.648;23.406;2022-08-19T09:00:10;99548.03;;;29.25;50.83
6349;BME280;3207;42.648;23.406;2022-08-19T09:02:38;99549.13;;;29.24;51.05
6349;BME280;3207;42.648;23.406;2022-08-19T09:05:05;99570.81;;;29.17;51.07
6349;BME280;3207;42.648;23.406;2022-08-19T09:07:43;99568.75;;;29.07;51.43
6349;BME280;3207;42.648;23.406;2022-08-19T09:10:22;99556.75;;;28.98;51.84
6349;BME280;3207;42.648;23.406;2022-08-19T09:12:57;99555.47;;;29.01;52.36
6349;BME280;3207;42.648;23.406;2022-08-19T09:15:30;99566.59;;;28.93;53.44
6349;BME280;3207;42.648;23.406;2022-08-19T09:18:01;99581.44;;;28.79;54.14
6349;BME280;3207;42.648;23.406;2022-08-19T09:20:29;99581.63;;;28.77;54.90
6349;BME280;3207;42.648;23.406;2022-08-19T09:22:57;99571.94;;;28.76;55.59
6349;BME280;3207;42.648;23.406;2022-08-19T09:25:25;99542.31;;;28.59;57.48
6349;BME280;3207;42.648;23.406;2022-08-19T09:27:52;99562.31;;;28.52;58.25
6349;BME280;3207;42.648;23.406;2022-08-19T09:30:21;99492.56;;;28.33;59.42
6349;BME280;3207;42.648;23.406;2022-08-19T09:32:49;99490.34;;;28.30;61.20
6349;BME280;3207;42.648;23.406;2022-08-19T09:35:18;99503.72;;;28.25;62.12
6349;BME280;3207;42.648;23.406;2022-08-19T09:37:45;99507.31;;;28.31;62.52
6349;BME280;3207;42.648;23.406;2022-08-19T09:40:13;99504.84;;;28.29;61.91
6349;BME280;3207;42.648;23.406;2022-08-19T09:42:39;99475.34;;;28.06;63.09
6349;BME280;3207;42.648;23.406;2022-08-19T09:45:09;99488.91;;;27.88;64.22
6349;BME280;3207;42.648;23.406;2022-08-19T09:47:36;99491.06;;;27.62;64.85
6349;BME280;3207;42.648;23.406;2022-08-19T09:50:04;99496.78;;;27.54;65.60
6349;BME280;3207;42.648;23.406;2022-08-19T09:52:32;99507.25;;;27.44;66.60
6349;BME280;3207;42.648;23.406;2022-08-19T09:55:02;99486.84;;;27.31;66.29
6349;BME280;3207;42.648;23.406;2022-08-19T09:57:30;99455.22;;;27.22;67.43
6349;BME280;3207;42.648;23.406;2022-08-19T09:59:56;99431.16;;;27.04;67.68
6349;BME280;3207;42.648;23.406;2022-08-19T10:02:23;99406.16;;;26.91;68.06
6349;BME280;3207;42.648;23.406;2022-08-19T10:04:50;99392.84;;;26.85;69.48
6349;BME280;3207;42.648;23.406;2022-08-19T10:07:34;99419.00;;;26.89;69.84
6349;BME280;3207;42.648;23.406;2022-08-19T10:10:02;99432.78;;;26.93;69.55
6349;BME280;3207;42.648;23.406;2022-08-19T10:12:30;99437.91;;;26.94;69.83
6349;BME280;3207;42.648;23.406;2022-08-19T10:14:58;99382.25;;;26.90;69.07
6349;BME280;3207;42.648;23.406;2022-08-19T10:17:24;99366.97;;;27.02;68.34
6349;BME280;3207;42.648;23.406;2022-08-19T10:19:51;99371.88;;;27.17;68.55
6349;BME280;3207;42.648;23.406;2022-08-19T10:22:18;99408.28;;;27.36;66.52
6349;BME280;3207;42.648;23.406;2022-08-19T10:24:45;99413.88;;;27.69;66.00
6349;BME280;3207;42.648;23.406;2022-08-19T10:27:12;99420.56;;;27.95;65.17
6349;BME280;3207;42.648;23.406;2022-08-19T10:29:40;99436.88;;;28.46;63.66
6349;BME280;3207;42.648;23.406;2022-08-19T10:32:08;99451.69;;;28.93;61.58
6349;BME280;3207;42.648;23.406;2022-08-19T10:34:37;99437.91;;;29.40;59.88
6349;BME280;3207;42.648;23.406;2022-08-19T10:37:04;99399.13;;;29.84;58.38
6349;BME280;3207;42.648;23.406;2022-08-19T10:39:33;99406.41;;;30.33;55.10
6349;BME280;3207;42.648;23.406;2022-08-19T10:42:08;99420.03;;;30.75;53.52
6349;BME280;3207;42.648;23.406;2022-08-19T10:44:36;99422.81;;;31.17;51.51
6349;BME280;3207;42.648;23.406;2022-08-19T10:47:04;99429.94;;;31.80;49.99
6349;BME280;3207;42.648;23.406;2022-08-19T10:49:31;99432.28;;;32.29;47.12
6349;BME280;3207;42.648;23.406;2022-08-19T10:52:18;99443.69;;;32.66;46.44
6349;BME280;3207;42.648;23.406;2022-08-19T10:54:59;99428.56;;;33.01;44.68
6349;BME280;3207;42.648;23.406;2022-08-19T10:57:43;99436.63;;;33.41;44.02
6349;BME280;3207;42.648;23.406;2022-08-19T11:00:10;99430.03;;;33.78;42.74
6349;BME280;3207;42.648;23.406;2022-08-19T11:02:40;99440.03;;;33.88;40.78
6349;BME280;3207;42.648;23.406;2022-08-19T11:05:07;99433.25;;;33.90;41.33
6349;BME280;3207;42.648;23.406;2022-08-19T11:07:36;99437.84;;;33.90;41.66
6349;BME280;3207;42.648;23.406;2022-08-19T11:10:03;99435.88;;;34.05;41.68
6349;BME280;3207;42.648;23.406;2022-08-19T11:12:30;99425.38;;;34.38;40.39
6349;BME280;3207;42.648;23.406;2022-08-19T11:14:58;99438.56;;;34.55;39.72
6349;BME280;3207;42.648;23.406;2022-08-19T11:17:24;99442.22;;;34.40;39.29
6349;BME280;3207;42.648;23.406;2022-08-19T11:19:52;99430.94;;;34.12;40.23
6349;BME280;3207;42.648;23.406;2022-08-19T11:22:19;99423.13;;;33.11;42.82
6349;BME280;3207;42.648;23.406;2022-08-19T11:24:45;99423.66;;;32.62;43.83
6349;BME280;3207;42.648;23.406;2022-08-19T11:27:12;99421.00;;;32.83;43.71
6349;BME280;3207;42.648;23.406;2022-08-19T11:29:39;99410.13;;;32.98;41.33
6349;BME280;3207;42.648;23.406;2022-08-19T11:32:08;99428.53;;;32.96;42.49
6349;BME280;3207;42.648;23.406;2022-08-19T11:34:36;99421.25;;;32.76;40.23
6349;BME280;3207;42.648;23.406;2022-08-19T11:37:05;99419.06;;;33.03;41.82
6349;BME280;3207;42.648;23.406;2022-08-19T11:39:34;99410.97;;;32.73;42.82
6349;BME280;3207;42.648;23.406;2022-08-19T11:42:04;99415.53;;;32.98;42.48
6349;BME280;3207;42.648;23.406;2022-08-19T11:44:51;99412.31;;;32.91;42.58
6349;BME280;3207;42.648;23.406;2022-08-19T11:47:18;99408.50;;;32.77;42.84
6349;BME280;3207;42.648;23.406;2022-08-19T11:49:45;99397.94;;;32.85;42.70
6349;BME280;3207;42.648;23.406;2022-08-19T11:52:14;99404.19;;;32.76;42.45
6349;BME280;3207;42.648;23.406;2022-08-19T11:54:40;99396.06;;;32.91;41.95
6349;BME280;3207;42.648;23.406;2022-08-19T11:57:07;99405.25;;;32.90;41.45
6349;BME280;3207;42.648;23.406;2022-08-19T11:59:34;99393.91;;;32.93;41.96
6349;BME280;3207;42.648;23.406;2022-08-19T12:02:00;99382.53;;;32.81;42.35
6349;BME280;3207;42.648;23.406;2022-08-19T12:04:27;99368.69;;;32.97;41.14
6349;BME280;3207;42.648;23.406;2022-08-19T12:06:53;99373.81;;;33.24;38.99
6349;BME280;3207;42.648;23.406;2022-08-19T12:09:21;99367.00;;;33.17;38.33
6349;BME280;3207;42.648;23.406;2022-08-19T12:11:48;99371.66;;;32.96;37.98
6349;BME280;3207;42.648;23.406;2022-08-19T12:14:16;99370.59;;;32.66;39.09
6349;BME280;3207;42.648;23.406;2022-08-19T12:16:44;99371.44;;;32.82;38.46
6349;BME280;3207;42.648;23.406;2022-08-19T12:19:11;99365.19;;;32.87;38.48
6349;BME280;3207;42.648;23.406;2022-08-19T12:21:38;99363.31;;;32.72;38.75
6349;BME280;3207;42.648;23.406;2022-08-19T12:24:06;99358.97;;;32.41;40.10
6349;BME280;3207;42.648;23.406;2022-08-19T12:26:35;99358.94;;;32.56;41.05
6349;BME280;3207;42.648;23.406;2022-08-19T12:29:03;99361.94;;;32.75;41.98
6349;BME280;3207;42.648;23.406;2022-08-19T12:31:30;99352.16;;;32.99;41.48
6349;BME280;3207;42.648;23.406;2022-08-19T12:33:57;99344.00;;;33.09;41.19
6349;BME280;3207;42.648;23.406;2022-08-19T12:36:24;99344.84;;;33.04;41.26
6349;BME280;3207;42.648;23.406;2022-08-19T12:38:51;99337.03;;;32.83;41.93
6349;BME280;3207;42.648;23.406;2022-08-19T12:41:18;99334.59;;;32.76;42.00
6349;BME280;3207;42.648;23.406;2022-08-19T12:43:49;99331.06;;;32.76;41.96
6349;BME280;3207;42.648;23.406;2022-08-19T12:46:16;99332.66;;;32.97;41.64
6349;BME280;3207;42.648;23.406;2022-08-19T12:48:43;99319.69;;;32.94;41.15
6349;BME280;3207;42.648;23.406;2022-08-19T12:51:13;99322.38;;;32.89;41.40
6349;BME280;3207;42.648;23.406;2022-08-19T12:53:40;99312.59;;;32.98;41.12
6349;BME280;3207;42.648;23.406;2022-08-19T12:56:08;99334.84;;;32.85;40.47
6349;BME280;3207;42.648;23.406;2022-08-19T12:58:35;99338.38;;;32.80;39.59
6349;BME280;3207;42.648;23.406;2022-08-19T13:01:08;99328.94;;;32.72;40.18
6349;BME280;3207;42.648;23.406;2022-08-19T13:03:35;99322.66;;;32.92;39.57
6349;BME280;3207;42.648;23.406;2022-08-19T13:06:02;99322.06;;;33.11;39.67
6349;BME280;3207;42.648;23.406;2022-08-19T13:08:29;99328.13;;;32.72;40.19
6349;BME280;3207;42.648;23.406;2022-08-19T13:10:56;99312.13;;;32.70;40.07
6349;BME280;3207;42.648;23.406;2022-08-19T13:13:23;99288.84;;;32.49;40.13
6349;BME280;3207;42.648;23.406;2022-08-19T13:15:51;99304.28;;;32.84;40.08
6349;BME280;3207;42.648;23.406;2022-08-19T13:18:19;99298.56;;;32.76;39.93